createdAt,value
2023-01-13T00:00:52.303Z,9.24
2023-01-13T00:01:52.331Z,9.27
2023-01-13T00:02:52.270Z,9.28
2023-01-13T00:03:52.283Z,9.32
2023-01-13T00:04:52.375Z,9.31
2023-01-13T00:05:52.241Z,9.30
2023-01-13T00:06:52.246Z,9.30
2023-01-13T00:07:52.223Z,9.28
2023-01-13T00:08:52.224Z,9.31
2023-01-13T00:09:52.222Z,9.30
2023-01-13T00:10:52.190Z,9.30
2023-01-13T00:11:52.210Z,9.32
2023-01-13T00:12:52.177Z,9.34
2023-01-13T00:13:52.202Z,9.31
2023-01-13T00:14:52.216Z,9.31
2023-01-13T00:15:52.161Z,9.32
2023-01-13T00:16:52.089Z,9.30
2023-01-13T00:17:52.159Z,9.31
2023-01-13T00:18:52.129Z,9.31
2023-01-13T00:19:52.111Z,9.30
2023-01-13T00:20:52.085Z,9.27
2023-01-13T00:21:52.253Z,9.28
2023-01-13T00:22:52.094Z,9.28
2023-01-13T00:23:52.112Z,9.31
2023-01-13T00:24:52.078Z,9.32
2023-01-13T00:25:52.050Z,9.28
2023-01-13T00:26:52.063Z,9.30
2023-01-13T00:27:52.032Z,9.28
2023-01-13T00:28:52.006Z,9.27
2023-01-13T00:29:51.992Z,9.24
2023-01-13T00:30:52.036Z,9.23
2023-01-13T00:31:51.975Z,9.24
2023-01-13T00:32:51.987Z,9.24
2023-01-13T00:33:51.955Z,9.27
2023-01-13T00:34:51.961Z,9.24
2023-01-13T00:35:51.926Z,9.24
2023-01-13T00:36:51.924Z,9.24
2023-01-13T00:37:51.935Z,9.27
2023-01-13T00:38:51.904Z,9.24
2023-01-13T00:39:51.937Z,9.23
2023-01-13T00:40:51.948Z,9.21
2023-01-13T00:41:51.920Z,9.21
2023-01-13T00:42:51.882Z,9.21
2023-01-13T00:43:51.869Z,9.21
2023-01-13T00:44:51.853Z,9.24
2023-01-13T00:45:51.826Z,9.24
2023-01-13T00:46:51.915Z,9.24
2023-01-13T00:47:51.842Z,9.30
2023-01-13T00:48:51.926Z,9.27
2023-01-13T00:49:51.815Z,9.28
2023-01-13T00:50:51.793Z,9.28
2023-01-13T00:51:51.776Z,9.23
2023-01-13T00:52:51.772Z,9.20
2023-01-13T00:53:51.879Z,9.21
2023-01-13T00:54:51.757Z,9.27
2023-01-13T00:55:51.764Z,9.25
2023-01-13T00:56:51.737Z,9.18
2023-01-13T00:57:51.704Z,9.18
2023-01-13T00:58:51.705Z,9.20
2023-01-13T00:59:51.689Z,9.13
2023-01-13T01:00:51.839Z,9.15
2023-01-13T01:01:51.826Z,9.10
2023-01-13T01:02:51.690Z,9.10
2023-01-13T01:03:51.649Z,9.12
2023-01-13T01:04:51.650Z,9.10
2023-01-13T01:05:51.632Z,9.04
2023-01-13T01:06:51.646Z,9.05
2023-01-13T01:07:51.632Z,9.01
2023-01-13T01:08:51.597Z,9.04
2023-01-13T01:09:51.608Z,9.10
2023-01-13T01:10:51.595Z,9.09
2023-01-13T01:11:51.617Z,9.04
2023-01-13T01:12:51.577Z,9.05
2023-01-13T01:13:51.551Z,9.06
2023-01-13T01:14:51.547Z,8.99
2023-01-13T01:15:51.554Z,8.99
2023-01-13T01:16:51.519Z,8.96
2023-01-13T01:17:51.509Z,8.94
2023-01-13T01:18:51.522Z,8.94
2023-01-13T01:19:51.492Z,8.96
2023-01-13T01:20:51.552Z,8.93
2023-01-13T01:21:51.497Z,8.91
2023-01-13T01:22:51.479Z,8.87
2023-01-13T01:23:51.450Z,8.86
2023-01-13T01:24:51.459Z,8.84
2023-01-13T01:25:51.429Z,8.86
2023-01-13T01:26:51.439Z,8.78
2023-01-13T01:27:51.405Z,8.75
2023-01-13T01:28:51.392Z,8.75
2023-01-13T01:29:51.389Z,8.79
2023-01-13T01:30:51.398Z,8.75
2023-01-13T01:31:51.397Z,8.76
2023-01-13T01:32:51.377Z,8.71
2023-01-13T01:33:51.360Z,8.69
2023-01-13T01:34:51.344Z,8.69
2023-01-13T01:35:51.356Z,8.69
2023-01-13T01:36:51.362Z,8.69
2023-01-13T01:37:51.300Z,8.65
2023-01-13T01:38:51.303Z,8.63
2023-01-13T01:39:51.298Z,8.55
2023-01-13T01:40:51.259Z,8.54
2023-01-13T01:41:51.252Z,8.50
2023-01-13T01:42:51.246Z,8.51
2023-01-13T01:43:51.263Z,8.53
2023-01-13T01:44:51.216Z,8.53
2023-01-13T01:45:51.208Z,8.51
2023-01-13T01:46:51.264Z,8.50
2023-01-13T01:47:51.197Z,8.50
2023-01-13T01:48:51.183Z,8.48
2023-01-13T01:49:51.183Z,8.50
2023-01-13T01:50:51.167Z,8.47
2023-01-13T01:51:51.147Z,8.39
2023-01-13T01:52:51.153Z,8.39
2023-01-13T01:53:51.123Z,8.39
2023-01-13T01:54:51.125Z,8.44
2023-01-13T01:55:51.103Z,8.40
2023-01-13T01:56:51.115Z,8.40
2023-01-13T01:57:51.077Z,8.40
2023-01-13T01:58:51.118Z,8.44
2023-01-13T01:59:51.079Z,8.44
2023-01-13T02:00:51.111Z,8.50
2023-01-13T02:01:51.241Z,8.54
2023-01-13T02:02:51.038Z,8.55
2023-01-13T02:03:51.033Z,8.58
2023-01-13T02:04:51.092Z,8.57
2023-01-13T02:05:51.000Z,8.58
2023-01-13T02:06:50.983Z,8.55
2023-01-13T02:07:50.985Z,8.57
2023-01-13T02:08:50.967Z,8.54
2023-01-13T02:09:50.971Z,8.51
2023-01-13T02:10:50.951Z,8.47
2023-01-13T02:11:50.943Z,8.44
2023-01-13T02:12:50.959Z,8.44
2023-01-13T02:13:50.916Z,8.40
2023-01-13T02:14:50.914Z,8.39
2023-01-13T02:15:50.915Z,8.37
2023-01-13T02:16:50.889Z,8.37
2023-01-13T02:17:50.866Z,8.36
2023-01-13T02:18:50.869Z,8.32
2023-01-13T02:19:50.867Z,8.33
2023-01-13T02:20:50.846Z,8.39
2023-01-13T02:21:50.832Z,8.37
2023-01-13T02:22:50.832Z,8.39
2023-01-13T02:23:50.824Z,8.32
2023-01-13T02:24:51.752Z,8.30
2023-01-13T02:25:50.806Z,8.30
2023-01-13T02:26:50.777Z,8.32
2023-01-13T02:27:50.763Z,8.26
2023-01-13T02:28:50.760Z,8.25
2023-01-13T02:29:50.762Z,8.22
2023-01-13T02:30:50.740Z,8.22
2023-01-13T02:31:50.763Z,8.21
2023-01-13T02:32:50.702Z,8.25
2023-01-13T02:33:50.699Z,8.22
2023-01-13T02:34:50.704Z,8.26
2023-01-13T02:35:50.692Z,8.26
2023-01-13T02:36:50.676Z,8.26
2023-01-13T02:37:50.659Z,8.30
2023-01-13T02:38:50.647Z,8.26
2023-01-13T02:39:50.666Z,8.28
2023-01-13T02:40:50.619Z,8.22
2023-01-13T02:41:50.609Z,8.26
2023-01-13T02:42:50.644Z,8.28
2023-01-13T02:43:50.595Z,8.25
2023-01-13T02:44:50.584Z,8.20
2023-01-13T02:45:50.672Z,8.21
2023-01-13T02:46:50.682Z,8.20
2023-01-13T02:47:50.556Z,8.20
2023-01-13T02:48:50.539Z,8.26
2023-01-13T02:49:50.553Z,8.22
2023-01-13T02:50:50.535Z,8.25
2023-01-13T02:51:50.507Z,8.25
2023-01-13T02:52:50.498Z,8.29
2023-01-13T02:53:50.489Z,8.29
2023-01-13T02:54:50.486Z,8.28
2023-01-13T02:55:50.486Z,8.29
2023-01-13T02:56:50.464Z,8.25
2023-01-13T02:57:50.435Z,8.25
2023-01-13T02:58:50.449Z,8.22
2023-01-13T02:59:50.435Z,8.20
2023-01-13T03:00:50.879Z,8.20
2023-01-13T03:01:50.696Z,8.20
2023-01-13T03:02:50.501Z,8.15
2023-01-13T03:03:50.408Z,8.21
2023-01-13T03:04:50.456Z,8.18
2023-01-13T03:05:50.373Z,8.18
2023-01-13T03:06:50.413Z,8.14
2023-01-13T03:07:50.376Z,8.08
2023-01-13T03:08:50.344Z,8.00
2023-01-13T03:09:50.333Z,8.00
2023-01-13T03:10:50.357Z,7.96
2023-01-13T03:11:50.344Z,7.99
2023-01-13T03:12:50.318Z,7.99
2023-01-13T03:13:50.315Z,8.03
2023-01-13T03:14:50.287Z,8.04
2023-01-13T03:15:50.281Z,8.12
2023-01-13T03:16:50.327Z,8.17
2023-01-13T03:17:50.259Z,8.15
2023-01-13T03:18:50.256Z,8.14
2023-01-13T03:19:50.226Z,8.15
2023-01-13T03:20:50.227Z,8.18
2023-01-13T03:21:50.207Z,8.18
2023-01-13T03:22:50.237Z,8.20
2023-01-13T03:23:50.189Z,8.21
2023-01-13T03:24:50.182Z,8.22
2023-01-13T03:25:50.165Z,8.20
2023-01-13T03:26:50.164Z,8.20
2023-01-13T03:27:50.193Z,8.20
2023-01-13T03:28:50.151Z,8.20
2023-01-13T03:29:50.151Z,8.15
2023-01-13T03:30:50.159Z,8.14
2023-01-13T03:31:50.104Z,8.10
2023-01-13T03:32:50.100Z,8.17
2023-01-13T03:33:50.090Z,8.15
2023-01-13T03:34:50.091Z,8.11
2023-01-13T03:35:50.082Z,8.14
2023-01-13T03:36:50.062Z,8.20
2023-01-13T03:37:50.103Z,8.20
2023-01-13T03:38:50.057Z,8.22
2023-01-13T03:39:50.029Z,8.21
2023-01-13T03:40:50.020Z,8.22
2023-01-13T03:41:50.015Z,8.22
2023-01-13T03:42:50.007Z,8.17
2023-01-13T03:43:49.995Z,8.14
2023-01-13T03:44:49.988Z,8.10
2023-01-13T03:45:49.988Z,8.03
2023-01-13T03:46:49.953Z,8.02
2023-01-13T03:47:49.963Z,8.03
2023-01-13T03:48:49.940Z,8.03
2023-01-13T03:49:49.973Z,8.08
2023-01-13T03:50:49.942Z,8.04
2023-01-13T03:51:49.909Z,7.99
2023-01-13T03:52:49.901Z,7.99
2023-01-13T03:53:49.913Z,8.03
2023-01-13T03:54:49.861Z,8.02
2023-01-13T03:55:49.867Z,7.99
2023-01-13T03:56:49.874Z,7.97
2023-01-13T03:57:49.924Z,8.02
2023-01-13T03:58:49.835Z,8.02
2023-01-13T03:59:49.826Z,8.08
2023-01-13T04:00:49.883Z,8.12
2023-01-13T04:01:49.964Z,8.10
2023-01-13T04:02:49.797Z,8.12
2023-01-13T04:03:49.804Z,8.08
2023-01-13T04:04:49.787Z,8.10
2023-01-13T04:05:49.760Z,8.04
2023-01-13T04:06:49.765Z,8.04
2023-01-13T04:07:49.756Z,8.04
2023-01-13T04:08:49.725Z,8.03
2023-01-13T04:09:49.710Z,8.00
2023-01-13T04:10:49.725Z,7.99
2023-01-13T04:11:49.687Z,7.97
2023-01-13T04:16:56.264Z,8.10
2023-01-13T04:17:56.996Z,8.12
2023-01-13T04:18:56.999Z,8.07
2023-01-13T04:19:57.014Z,8.15
2023-01-13T04:20:56.995Z,8.17
2023-01-13T04:21:56.944Z,8.17
2023-01-13T04:22:56.997Z,8.18
2023-01-13T04:23:56.936Z,8.15
2023-01-13T04:24:56.943Z,8.15
2023-01-13T04:25:56.971Z,8.18
2023-01-13T04:26:56.921Z,8.12
2023-01-13T04:27:56.896Z,8.11
2023-01-13T04:28:56.891Z,8.07
2023-01-13T04:29:56.865Z,8.10
2023-01-13T04:30:56.954Z,8.07
2023-01-13T04:31:56.891Z,8.08
2023-01-13T04:32:56.891Z,8.04
2023-01-13T04:33:56.822Z,8.02
2023-01-13T04:34:56.807Z,8.03
2023-01-13T04:35:56.801Z,8.03
2023-01-13T04:36:56.825Z,8.02
2023-01-13T04:37:56.782Z,8.03
2023-01-13T04:38:56.797Z,8.07
2023-01-13T04:39:56.760Z,8.04
2023-01-13T04:40:56.766Z,8.11
2023-01-13T04:41:56.763Z,8.14
2023-01-13T04:42:56.727Z,8.17
2023-01-13T04:43:56.722Z,8.18
2023-01-13T04:44:56.762Z,8.10
2023-01-13T04:45:56.804Z,8.10
2023-01-13T04:46:56.692Z,8.10
2023-01-13T04:47:56.681Z,8.08
2023-01-13T04:48:56.665Z,8.11
2023-01-13T04:49:56.653Z,8.10
2023-01-13T04:50:56.665Z,8.08
2023-01-13T04:51:58.609Z,8.10
2023-01-13T04:52:56.749Z,8.11
2023-01-13T04:53:57.249Z,8.12
2023-01-13T04:54:57.264Z,8.12
2023-01-13T04:55:56.603Z,8.18
2023-01-13T04:56:57.261Z,8.14
2023-01-13T04:57:56.593Z,8.20
2023-01-13T04:58:56.602Z,8.25
2023-01-13T04:59:56.557Z,8.26
2023-01-13T05:00:57.249Z,8.25
2023-01-13T05:01:56.601Z,8.25
2023-01-13T05:02:57.214Z,8.22
2023-01-13T05:03:56.488Z,8.29
2023-01-13T05:04:56.606Z,8.26
2023-01-13T05:05:56.477Z,8.18
2023-01-13T05:06:57.109Z,8.17
2023-01-13T05:07:56.477Z,8.17
2023-01-13T05:08:57.117Z,8.14
2023-01-13T05:09:56.495Z,8.17
2023-01-13T05:10:56.579Z,8.22
2023-01-13T05:11:56.422Z,8.26
2023-01-13T05:12:56.453Z,8.26
2023-01-13T05:13:56.400Z,8.18
2023-01-13T05:14:56.406Z,8.17
2023-01-13T05:15:56.404Z,8.15
2023-01-13T05:16:56.398Z,8.14
2023-01-13T05:17:56.360Z,8.17
2023-01-13T05:18:56.355Z,8.14
2023-01-13T05:19:56.322Z,8.11
2023-01-13T05:20:56.339Z,8.04
2023-01-13T05:21:56.328Z,8.04
2023-01-13T05:22:56.361Z,8.10
2023-01-13T05:23:56.293Z,8.10
2023-01-13T05:24:56.311Z,8.12
2023-01-13T05:25:56.285Z,8.17
2023-01-13T05:26:56.269Z,8.17
2023-01-13T05:27:56.265Z,8.17
2023-01-13T05:28:56.289Z,8.15
2023-01-13T05:29:56.222Z,8.11
2023-01-13T05:30:56.295Z,8.14
2023-01-13T05:31:56.209Z,8.18
2023-01-13T05:32:56.240Z,8.20
2023-01-13T05:33:56.181Z,8.15
2023-01-13T05:34:56.175Z,8.12
2023-01-13T05:35:56.164Z,8.15
2023-01-13T05:36:56.185Z,8.14
2023-01-13T05:37:56.134Z,8.12
2023-01-13T05:38:56.383Z,8.11
2023-01-13T05:52:13.471Z,7.92
2023-01-13T05:53:14.319Z,7.87
2023-01-13T05:54:14.322Z,7.84
2023-01-13T05:55:14.303Z,7.85
2023-01-13T05:56:14.279Z,7.84
2023-01-13T05:57:14.336Z,7.84
2023-01-13T05:58:14.273Z,7.84
2023-01-13T05:59:14.253Z,7.82
2023-01-13T06:00:14.235Z,7.87
2023-01-13T06:10:06.699Z,7.84
2023-01-13T06:11:07.679Z,7.87
2023-01-13T06:12:07.707Z,7.92
2023-01-13T06:13:07.569Z,7.96
2023-01-13T06:14:07.559Z,7.96
2023-01-13T06:15:07.578Z,7.97
2023-01-13T06:16:07.614Z,7.99
2023-01-13T06:17:07.567Z,8.00
2023-01-13T06:18:07.530Z,8.07
2023-01-13T06:19:07.572Z,8.10
2023-01-13T06:20:07.510Z,8.10
2023-01-13T06:21:07.508Z,8.07
2023-01-13T06:22:07.502Z,8.04
2023-01-13T06:23:07.433Z,7.96
2023-01-13T06:24:07.512Z,7.90
2023-01-13T06:25:07.453Z,7.89
2023-01-13T06:26:07.439Z,7.87
2023-01-13T06:27:07.431Z,7.90
2023-01-13T06:28:07.459Z,7.90
2023-01-13T06:29:07.701Z,7.94
2023-01-13T06:30:07.412Z,7.94
2023-01-13T06:31:07.572Z,7.94
2023-01-13T06:32:07.390Z,7.96
2023-01-13T06:33:07.371Z,7.99
2023-01-13T06:34:07.462Z,8.02
2023-01-13T06:35:07.334Z,8.04
2023-01-13T06:36:07.369Z,8.04
2023-01-13T06:37:07.350Z,8.12
2023-01-13T06:38:07.321Z,8.07
2023-01-13T06:39:07.310Z,8.07
2023-01-13T06:40:07.295Z,8.00
2023-01-13T06:41:07.278Z,8.04
2023-01-13T06:42:07.285Z,8.07
2023-01-13T06:43:07.252Z,8.08
2023-01-13T06:44:07.222Z,8.03
2023-01-13T06:45:07.246Z,8.04
2023-01-13T06:46:07.265Z,8.08
2023-01-13T06:47:07.256Z,8.02
2023-01-13T06:48:07.210Z,8.07
2023-01-13T06:49:07.185Z,8.03
2023-01-13T06:50:07.190Z,8.02
2023-01-13T06:51:07.170Z,8.03
2023-01-13T06:52:07.197Z,8.00
2023-01-13T06:53:07.145Z,8.00
2023-01-13T06:54:07.143Z,8.00
2023-01-13T06:55:07.152Z,7.99
2023-01-13T06:56:07.145Z,7.97
2023-01-13T06:57:07.128Z,7.93
2023-01-13T06:58:07.104Z,7.90
2023-01-13T06:59:07.086Z,7.90
2023-01-13T07:00:07.106Z,7.92
2023-01-13T07:01:07.276Z,7.89
2023-01-13T07:02:07.267Z,7.94
2023-01-13T07:03:07.257Z,7.97
2023-01-13T07:04:07.010Z,7.99
2023-01-13T07:05:06.981Z,8.02
2023-01-13T07:06:06.995Z,8.03
2023-01-13T07:07:06.948Z,8.04
2023-01-13T07:08:06.959Z,8.00
2023-01-13T07:09:07.083Z,7.99
2023-01-13T07:10:06.919Z,8.02
2023-01-13T07:11:06.945Z,8.07
2023-01-13T07:12:06.893Z,8.02
2023-01-13T07:13:06.912Z,7.96
2023-01-13T07:14:06.900Z,7.90
2023-01-13T07:15:06.899Z,7.84
2023-01-13T07:16:06.969Z,7.89
2023-01-13T07:17:06.862Z,7.90
2023-01-13T07:18:07.022Z,7.93
2023-01-13T07:19:06.862Z,7.90
2023-01-13T07:20:06.880Z,7.90
2023-01-13T07:21:06.835Z,7.85
2023-01-13T07:22:06.789Z,7.85
2023-01-13T07:23:06.802Z,7.82
2023-01-13T07:24:06.812Z,7.81
2023-01-13T07:25:06.787Z,7.85
2023-01-13T07:26:06.789Z,7.87
2023-01-13T07:27:06.768Z,7.89
2023-01-13T07:28:06.730Z,7.89
2023-01-13T07:29:06.781Z,7.93
2023-01-13T07:30:06.712Z,7.96
2023-01-13T07:31:06.715Z,7.99
2023-01-13T07:32:06.727Z,8.00
2023-01-13T07:33:06.680Z,8.04
2023-01-13T07:34:06.675Z,8.03
2023-01-13T07:35:06.706Z,8.03
2023-01-13T07:36:06.650Z,8.04
2023-01-13T07:37:06.655Z,8.03
2023-01-13T07:38:06.638Z,8.04
2023-01-13T07:39:06.636Z,8.02
2023-01-13T07:40:06.643Z,8.07
2023-01-13T07:41:06.609Z,8.04
2023-01-13T07:42:06.593Z,8.03
2023-01-13T07:43:06.591Z,8.04
2023-01-13T07:44:06.762Z,8.04
2023-01-13T07:45:06.557Z,8.00
2023-01-13T07:46:06.588Z,8.03
2023-01-13T07:47:06.535Z,8.00
2023-01-13T07:48:06.544Z,8.04
2023-01-13T07:49:06.510Z,8.07
2023-01-13T07:50:06.499Z,8.04
2023-01-13T07:51:06.480Z,8.04
2023-01-13T07:52:06.509Z,8.08
2023-01-13T07:53:06.501Z,8.04
2023-01-13T07:54:06.475Z,8.04
2023-01-13T07:55:06.466Z,8.11
2023-01-13T07:56:06.489Z,8.12
2023-01-13T07:57:06.425Z,8.12
2023-01-13T07:58:06.413Z,8.11
2023-01-13T07:59:06.403Z,8.12
2023-01-13T08:00:06.536Z,8.11
2023-01-13T08:01:06.479Z,8.12
2023-01-13T08:02:06.583Z,8.14
2023-01-13T08:03:06.440Z,8.14
2023-01-13T08:04:07.468Z,8.18
2023-01-13T08:05:06.725Z,8.18
2023-01-13T08:06:06.473Z,8.21
2023-01-13T08:07:06.457Z,8.20
2023-01-13T08:08:06.310Z,8.20
2023-01-13T08:09:06.304Z,8.20
2023-01-13T08:10:06.292Z,8.15
2023-01-13T08:11:06.294Z,8.18
2023-01-13T08:12:06.283Z,8.20
2023-01-13T08:13:06.293Z,8.20
2023-01-13T08:14:06.320Z,8.20
2023-01-13T08:15:06.243Z,8.17
2023-01-13T08:16:06.257Z,8.14
2023-01-13T08:17:06.231Z,8.11
2023-01-13T08:18:06.206Z,8.07
2023-01-13T08:20:47.752Z,8.00
2023-01-13T08:21:48.865Z,8.03
2023-01-13T08:22:48.698Z,7.99
2023-01-13T08:23:48.699Z,8.03
2023-01-13T08:24:48.674Z,8.02
2023-01-13T08:25:48.674Z,8.03
2023-01-13T08:26:48.659Z,8.07
2023-01-13T08:27:48.824Z,8.14
2023-01-13T08:28:48.841Z,8.15
2023-01-13T08:29:48.643Z,8.15
2023-01-13T08:30:48.648Z,8.14
2023-01-13T08:31:48.601Z,8.14
2023-01-13T08:32:48.636Z,8.15
2023-01-13T08:33:48.619Z,8.20
2023-01-13T08:34:48.571Z,8.20
2023-01-13T08:35:48.568Z,8.18
2023-01-13T08:36:48.564Z,8.20
2023-01-13T08:37:48.587Z,8.22
2023-01-13T08:38:48.524Z,8.28
2023-01-13T08:39:48.703Z,8.25
2023-01-13T08:40:48.504Z,8.28
2023-01-13T08:41:48.930Z,8.26
2023-01-13T08:42:48.893Z,8.25
2023-01-13T08:43:48.520Z,8.25
2023-01-13T08:44:48.458Z,8.25
2023-01-13T08:45:48.504Z,8.25
2023-01-13T08:46:48.448Z,8.30
2023-01-13T08:47:48.439Z,8.29
2023-01-13T08:48:48.829Z,8.26
2023-01-13T08:49:48.459Z,8.22
2023-01-13T08:50:48.971Z,8.22
2023-01-13T08:51:48.551Z,8.22
2023-01-13T08:52:48.381Z,8.22
2023-01-13T08:53:48.377Z,8.26
2023-01-13T08:54:48.363Z,8.25
2023-01-13T08:55:48.350Z,8.26
2023-01-13T08:56:48.350Z,8.32
2023-01-13T08:57:48.339Z,8.33
2023-01-13T08:58:48.332Z,8.33
2023-01-13T08:59:48.303Z,8.30
2023-01-13T09:00:48.292Z,8.32
2023-01-13T09:01:48.519Z,8.32
2023-01-13T09:02:48.294Z,8.32
2023-01-13T09:03:48.286Z,8.35
2023-01-13T09:04:48.313Z,8.32
2023-01-13T09:05:48.262Z,8.32
2023-01-13T09:06:48.256Z,8.29
2023-01-13T09:07:48.227Z,8.32
2023-01-13T09:08:48.252Z,8.29
2023-01-13T09:09:48.300Z,8.28
2023-01-13T09:10:48.203Z,8.29
2023-01-13T09:11:48.186Z,8.29
2023-01-13T09:12:48.491Z,8.33
2023-01-13T09:13:48.175Z,8.33
2023-01-13T09:14:48.154Z,8.33
2023-01-13T09:15:48.168Z,8.33
2023-01-13T09:16:48.134Z,8.33
2023-01-13T09:17:48.144Z,8.35
2023-01-13T09:18:48.125Z,8.35
2023-01-13T09:19:48.137Z,8.40
2023-01-13T09:20:48.085Z,8.39
2023-01-13T09:21:48.310Z,8.35
2023-01-13T09:22:48.053Z,8.40
2023-01-13T09:23:48.069Z,8.39
2023-01-13T09:24:48.061Z,8.42
2023-01-13T09:25:48.066Z,8.42
2023-01-13T09:26:48.681Z,8.45
2023-01-13T09:27:49.075Z,8.45
2023-01-13T09:28:48.055Z,8.51
2023-01-13T09:29:48.015Z,8.48
2023-01-13T09:30:48.258Z,8.50
2023-01-13T09:31:47.993Z,8.51
2023-01-13T09:32:47.970Z,8.55
2023-01-13T09:33:47.958Z,8.60
2023-01-13T09:34:48.126Z,8.57
2023-01-13T09:35:48.011Z,8.58
2023-01-13T09:36:47.993Z,8.65
2023-01-13T09:37:48.359Z,8.60
2023-01-13T09:38:47.886Z,8.66
2023-01-13T09:39:47.907Z,8.65
2023-01-13T09:40:47.896Z,8.65
2023-01-13T09:41:47.873Z,8.65
2023-01-13T09:42:47.882Z,8.60
2023-01-13T09:43:47.901Z,8.58
2023-01-13T09:44:48.005Z,8.60
2023-01-13T09:45:47.861Z,8.57
2023-01-13T09:46:47.843Z,8.55
2023-01-13T09:47:48.490Z,8.54
2023-01-13T09:48:47.818Z,8.57
2023-01-13T09:49:47.825Z,8.60
2023-01-13T09:50:47.808Z,8.54
2023-01-13T09:51:47.780Z,8.55
2023-01-13T09:52:47.774Z,8.53
2023-01-13T09:53:47.757Z,8.50
2023-01-13T09:54:47.767Z,8.45
2023-01-13T09:55:47.826Z,8.48
2023-01-13T09:56:47.741Z,8.53
2023-01-13T09:57:47.756Z,8.54
2023-01-13T09:58:47.759Z,8.54
2023-01-13T09:59:47.694Z,8.55
2023-01-13T10:00:47.682Z,8.55
2023-01-13T10:01:47.782Z,8.55
2023-01-13T10:02:47.649Z,8.55
2023-01-13T10:03:47.687Z,8.53
2023-01-13T10:04:47.659Z,8.53
2023-01-13T10:05:47.633Z,8.51
2023-01-13T10:06:47.638Z,8.53
2023-01-13T10:07:48.966Z,8.51
2023-01-13T10:08:47.591Z,8.54
2023-01-13T10:09:47.589Z,8.60
2023-01-13T10:10:47.592Z,8.65
2023-01-13T10:11:47.820Z,8.71
2023-01-13T10:12:47.574Z,8.73
2023-01-13T10:13:47.549Z,8.78
2023-01-13T10:14:47.527Z,8.81
2023-01-13T10:15:47.556Z,8.84
2023-01-13T10:16:47.525Z,8.84
2023-01-13T10:17:47.500Z,8.84
2023-01-13T10:18:47.490Z,8.86
2023-01-13T10:19:47.588Z,8.86
2023-01-13T10:20:47.488Z,8.84
2023-01-13T10:21:47.506Z,8.86
2023-01-13T10:22:47.454Z,8.87
2023-01-13T10:23:47.511Z,8.86
2023-01-13T10:24:47.425Z,8.87
2023-01-13T10:25:47.497Z,8.86
2023-01-13T10:26:47.634Z,8.83
2023-01-13T10:27:47.516Z,8.83
2023-01-13T10:28:47.376Z,8.87
2023-01-13T10:29:47.370Z,8.81
2023-01-13T10:30:47.476Z,8.81
2023-01-13T10:31:47.359Z,8.81
2023-01-13T10:32:47.496Z,8.86
2023-01-13T10:33:47.338Z,8.88
2023-01-13T10:34:47.424Z,8.91
2023-01-13T10:35:47.332Z,8.97
2023-01-13T10:36:47.290Z,8.99
2023-01-13T10:37:47.373Z,8.91
2023-01-13T10:38:47.291Z,8.93
2023-01-13T10:39:47.424Z,8.88
2023-01-13T10:40:47.308Z,8.91
2023-01-13T10:41:47.258Z,8.91
2023-01-13T10:42:47.267Z,8.93
2023-01-13T10:43:47.241Z,8.93
2023-01-13T10:44:47.198Z,8.93
2023-01-13T10:45:47.212Z,8.94
2023-01-13T10:46:47.226Z,8.94
2023-01-13T10:47:47.547Z,9.01
2023-01-13T10:48:47.189Z,8.99
2023-01-13T10:49:47.183Z,9.01
2023-01-13T10:50:47.156Z,9.02
2023-01-13T10:51:47.151Z,8.94
2023-01-13T10:52:48.097Z,8.88
2023-01-13T10:53:47.129Z,8.87
2023-01-13T10:54:47.130Z,8.90
2023-01-13T10:55:49.049Z,8.91
2023-01-13T10:56:47.120Z,8.88
2023-01-13T10:57:47.085Z,8.93
2023-01-13T10:58:47.069Z,8.97
2023-01-13T10:59:47.141Z,8.99
2023-01-13T11:00:47.158Z,8.96
2023-01-13T11:01:47.152Z,8.94
2023-01-13T11:02:47.039Z,8.90
2023-01-13T11:03:47.112Z,8.90
2023-01-13T11:04:47.185Z,8.84
2023-01-13T11:05:47.011Z,8.81
2023-01-13T11:06:47.089Z,8.78
2023-01-13T11:07:47.428Z,8.76
2023-01-13T11:08:46.968Z,8.75
2023-01-13T11:09:47.263Z,8.71
2023-01-13T11:10:47.027Z,8.69
2023-01-13T11:11:47.148Z,8.66
2023-01-13T11:12:46.907Z,8.65
2023-01-13T11:13:46.917Z,8.62
2023-01-13T11:14:46.890Z,8.63
2023-01-13T11:15:46.932Z,8.60
2023-01-13T11:16:53.079Z,8.58
2023-01-13T11:17:46.947Z,8.55
2023-01-13T11:18:46.905Z,8.63
2023-01-13T11:19:47.116Z,8.65
2023-01-13T11:20:46.866Z,8.66
2023-01-13T11:21:46.869Z,8.65
2023-01-13T11:22:46.844Z,8.65
2023-01-13T11:23:46.820Z,8.68
2023-01-13T11:24:47.647Z,8.66
2023-01-13T11:25:47.129Z,8.66
2023-01-13T11:26:46.805Z,8.62
2023-01-13T11:27:46.995Z,8.66
2023-01-13T11:28:46.749Z,8.69
2023-01-13T11:29:46.786Z,8.66
2023-01-13T11:30:46.742Z,8.63
2023-01-13T11:31:46.768Z,8.66
2023-01-13T11:32:46.727Z,8.63
2023-01-13T11:33:46.736Z,8.62
2023-01-13T11:34:46.707Z,8.62
2023-01-13T11:35:46.700Z,8.53
2023-01-13T11:36:46.748Z,8.50
2023-01-13T11:37:46.659Z,8.45
2023-01-13T11:38:46.649Z,8.45
2023-01-13T11:39:46.731Z,8.40
2023-01-13T11:40:46.635Z,8.36
2023-01-13T11:41:46.673Z,8.33
2023-01-13T11:42:47.323Z,8.32
2023-01-13T11:43:46.644Z,8.25
2023-01-13T11:44:46.624Z,8.22
2023-01-13T11:45:46.611Z,8.21
2023-01-13T11:46:46.620Z,8.22
2023-01-13T11:47:46.557Z,8.15
2023-01-13T11:48:46.569Z,8.17
2023-01-13T11:49:46.543Z,8.17
2023-01-13T11:50:46.545Z,8.14
2023-01-13T11:51:46.518Z,8.14
2023-01-13T11:52:46.495Z,8.14
2023-01-13T11:53:46.512Z,8.12
2023-01-13T11:54:46.494Z,8.17
2023-01-13T11:55:46.502Z,8.20
2023-01-13T11:56:46.460Z,8.28
2023-01-13T11:57:46.467Z,8.29
2023-01-13T11:58:51.173Z,8.33
2023-01-13T11:59:46.437Z,8.32
2023-01-13T12:00:46.611Z,8.26
2023-01-13T12:01:46.551Z,8.26
2023-01-13T12:02:46.406Z,8.18
2023-01-13T12:03:46.395Z,8.15
2023-01-13T12:04:46.370Z,8.15
2023-01-13T12:05:46.364Z,8.21
2023-01-13T12:06:46.400Z,8.11
2023-01-13T12:07:46.410Z,7.97
2023-01-13T12:08:46.327Z,7.87
2023-01-13T12:09:46.350Z,7.87
2023-01-13T12:10:46.320Z,7.82
2023-01-13T12:11:46.309Z,7.87
2023-01-13T12:12:46.311Z,7.94
2023-01-13T12:13:46.273Z,8.02
2023-01-13T12:14:46.287Z,8.02
2023-01-13T12:15:46.294Z,8.10
2023-01-13T12:16:46.329Z,8.17
2023-01-13T12:17:46.272Z,8.25
2023-01-13T12:18:46.246Z,8.36
2023-01-13T12:19:46.214Z,8.47
2023-01-13T12:20:46.237Z,8.42
2023-01-13T12:21:46.234Z,8.21
2023-01-13T12:22:46.225Z,8.29
2023-01-13T12:23:46.379Z,8.29
2023-01-13T12:30:45.517Z,8.58
2023-01-13T12:31:46.491Z,8.45
2023-01-13T12:32:46.457Z,8.54
2023-01-13T12:33:46.475Z,8.55
2023-01-13T12:34:46.410Z,8.53
2023-01-13T12:35:46.495Z,8.51
2023-01-13T12:36:46.380Z,8.48
2023-01-13T12:37:46.454Z,8.44
2023-01-13T12:38:46.389Z,8.40
2023-01-13T12:39:46.356Z,8.35
2023-01-13T12:40:46.444Z,8.45
2023-01-13T12:41:46.354Z,8.48
2023-01-13T12:42:46.355Z,8.48
2023-01-13T12:43:46.326Z,8.50
2023-01-13T12:44:46.293Z,8.44
2023-01-13T12:45:46.348Z,8.47
2023-01-13T12:46:46.289Z,8.40
2023-01-13T12:47:46.307Z,8.44
2023-01-13T12:48:46.269Z,8.42
2023-01-13T12:49:46.258Z,8.44
2023-01-13T12:50:46.310Z,8.33
2023-01-13T12:51:46.278Z,8.36
2023-01-13T12:52:46.306Z,8.36
2023-01-13T12:53:46.221Z,8.37
2023-01-13T12:54:46.226Z,8.51
2023-01-13T12:55:46.204Z,8.51
2023-01-13T12:56:46.173Z,8.47
2023-01-13T12:57:46.169Z,8.47
2023-01-13T12:58:46.171Z,8.54
2023-01-13T12:59:46.151Z,8.53
2023-01-13T13:00:46.183Z,8.55
2023-01-13T13:01:46.302Z,8.66
2023-01-13T13:02:46.295Z,8.68
2023-01-13T13:03:46.143Z,8.72
2023-01-13T13:04:46.782Z,8.68
2023-01-13T13:05:46.107Z,8.72
2023-01-13T13:06:46.088Z,8.69
2023-01-13T13:07:46.087Z,8.65
2023-01-13T13:08:46.079Z,8.63
2023-01-13T13:09:46.062Z,8.66
2023-01-13T13:10:46.045Z,8.60
2023-01-13T13:11:46.027Z,8.51
2023-01-13T13:12:46.003Z,8.45
2023-01-13T13:13:46.057Z,8.39
2023-01-13T13:14:46.085Z,8.40
2023-01-13T13:15:46.526Z,8.50
2023-01-13T13:17:01.261Z,8.50
2023-01-13T13:17:46.008Z,8.53
2023-01-13T13:18:45.994Z,8.53
2023-01-13T13:19:45.979Z,8.53
2023-01-13T13:20:45.950Z,8.47
2023-01-13T13:21:45.943Z,8.48
2023-01-13T13:22:45.935Z,8.51
2023-01-13T13:23:46.172Z,8.50
2023-01-13T13:24:45.951Z,8.58
2023-01-13T13:25:45.878Z,8.57
2023-01-13T13:26:46.002Z,8.55
2023-01-13T13:27:45.988Z,8.62
2023-01-13T13:28:45.866Z,8.55
2023-01-13T13:29:45.908Z,8.58
2023-01-13T13:30:45.869Z,8.53
2023-01-13T13:31:45.826Z,8.45
2023-01-13T13:32:45.950Z,8.44
2023-01-13T13:33:45.801Z,8.45
2023-01-13T13:34:45.819Z,8.44
2023-01-13T13:35:45.794Z,8.36
2023-01-13T13:36:46.814Z,8.29
2023-01-13T13:37:45.755Z,8.33
2023-01-13T13:38:45.750Z,8.35
2023-01-13T13:39:45.753Z,8.32
2023-01-13T13:40:45.720Z,8.42
2023-01-13T13:41:45.703Z,8.47
2023-01-13T13:42:45.710Z,8.36
2023-01-13T13:43:45.707Z,8.40
2023-01-13T13:44:45.682Z,8.37
2023-01-13T13:45:45.796Z,8.44
2023-01-13T13:46:45.698Z,8.45
2023-01-13T13:47:45.675Z,8.44
2023-01-13T13:48:46.598Z,8.36
2023-01-13T13:49:45.673Z,8.39
2023-01-13T13:50:46.749Z,8.33
2023-01-13T13:51:45.696Z,8.32